createdAt,value
2018-06-25T00:01:05.895Z,4.90
2018-06-25T00:03:34.201Z,5.40
2018-06-25T00:06:02.817Z,4.97
2018-06-25T00:08:31.360Z,4.77
2018-06-25T00:10:59.715Z,5.30
2018-06-25T00:13:27.721Z,4.80
2018-06-25T00:15:56.022Z,5.33
2018-06-25T00:18:24.281Z,4.90
2018-06-25T00:20:52.592Z,4.90
2018-06-25T00:23:20.849Z,5.07
2018-06-25T00:25:49.137Z,5.07
2018-06-25T00:28:17.472Z,5.27
2018-06-25T00:30:45.810Z,4.60
2018-06-25T00:33:14.078Z,4.87
2018-06-25T00:35:42.373Z,4.63
2018-06-25T00:38:10.650Z,5.13
2018-06-25T00:40:38.985Z,5.17
2018-06-25T00:43:07.327Z,4.80
2018-06-25T00:45:35.631Z,5.37
2018-06-25T00:48:03.969Z,5.80
2018-06-25T00:50:32.291Z,5.23
2018-06-25T00:53:00.558Z,4.73
2018-06-25T00:55:28.860Z,5.30
2018-06-25T00:57:57.152Z,5.47
2018-06-25T01:00:25.469Z,5.53
2018-06-25T01:02:53.475Z,5.50
2018-06-25T01:05:21.799Z,5.60
2018-06-25T01:07:50.089Z,6.33
2018-06-25T01:10:18.354Z,6.30
2018-06-25T01:12:46.715Z,6.13
2018-06-25T01:15:15.009Z,5.80
2018-06-25T01:17:43.263Z,6.47
2018-06-25T01:20:11.579Z,6.90
2018-06-25T01:22:39.905Z,6.60
2018-06-25T01:25:07.926Z,6.70
2018-06-25T01:27:36.212Z,6.40
2018-06-25T01:30:04.563Z,7.17
2018-06-25T01:32:32.851Z,7.20
2018-06-25T01:35:01.125Z,7.00
2018-06-25T01:37:29.417Z,7.50
2018-06-25T01:39:57.707Z,7.30
2018-06-25T01:42:26.031Z,7.40
2018-06-25T01:44:54.305Z,7.90
2018-06-25T01:47:22.577Z,7.23
2018-06-25T01:49:50.865Z,7.87
2018-06-25T01:52:19.155Z,7.83
2018-06-25T01:54:47.502Z,8.50
2018-06-25T01:57:15.815Z,8.43
2018-06-25T01:59:44.083Z,7.80
2018-06-25T02:02:12.350Z,8.60
2018-06-25T02:04:40.679Z,8.60
2018-06-25T02:07:09.062Z,9.20
2018-06-25T02:09:37.320Z,8.60
2018-06-25T02:12:05.708Z,8.40
2018-06-25T02:14:33.980Z,8.60
2018-06-25T02:17:02.275Z,8.50
2018-06-25T02:19:30.580Z,8.43
2018-06-25T02:21:58.856Z,9.13
2018-06-25T02:24:27.520Z,9.43
2018-06-25T02:26:55.817Z,8.97
2018-06-25T02:29:24.096Z,8.83
2018-06-25T02:31:52.380Z,8.83
2018-06-25T02:34:20.664Z,9.80
2018-06-25T02:36:48.936Z,9.27
2018-06-25T02:39:17.204Z,9.67
2018-06-25T02:41:45.495Z,8.97
2018-06-25T02:44:13.784Z,10.03
2018-06-25T02:46:42.056Z,9.33
2018-06-25T02:49:10.338Z,10.10
2018-06-25T02:51:38.626Z,10.03
2018-06-25T02:54:06.928Z,10.60
2018-06-25T02:56:35.220Z,10.67
2018-06-25T02:59:03.627Z,11.00
2018-06-25T03:01:31.532Z,11.17
2018-06-25T03:03:59.810Z,10.73
2018-06-25T03:06:28.112Z,12.43
2018-06-25T03:08:56.392Z,11.80
2018-06-25T03:11:24.785Z,12.07
2018-06-25T03:13:53.051Z,11.47
2018-06-25T03:16:21.332Z,12.30
2018-06-25T03:18:49.632Z,12.33
2018-06-25T03:21:17.904Z,12.13
2018-06-25T03:23:46.180Z,13.37
2018-06-25T03:26:14.569Z,12.37
2018-06-25T03:28:42.836Z,13.47
2018-06-25T03:31:11.095Z,13.40
2018-06-25T03:33:39.398Z,13.03
2018-06-25T03:36:07.678Z,14.10
2018-06-25T03:38:35.948Z,13.07
2018-06-25T03:41:04.200Z,14.63
2018-06-25T03:43:32.600Z,15.53
2018-06-25T03:46:00.688Z,17.13
2018-06-25T03:48:28.706Z,15.00
2018-06-25T03:50:57.068Z,14.60
2018-06-25T03:53:25.378Z,14.80
2018-06-25T03:55:53.647Z,14.37
2018-06-25T03:58:22.029Z,14.47
2018-06-25T04:00:50.295Z,14.00
2018-06-25T04:03:18.560Z,14.00
2018-06-25T04:05:46.840Z,14.07
2018-06-25T04:08:14.856Z,13.93
2018-06-25T04:10:43.152Z,13.27
2018-06-25T04:13:11.432Z,13.70
2018-06-25T04:15:39.720Z,14.47
2018-06-25T04:18:08.080Z,14.43
2018-06-25T04:20:36.395Z,13.30
2018-06-25T04:23:04.688Z,13.63
2018-06-25T04:25:32.948Z,13.27
2018-06-25T04:28:01.216Z,13.13
2018-06-25T04:30:29.491Z,13.70
2018-06-25T04:32:57.752Z,13.53
2018-06-25T04:35:26.056Z,16.07
2018-06-25T04:37:54.328Z,14.47
2018-06-25T04:40:22.743Z,13.50
2018-06-25T04:42:50.896Z,13.10
2018-06-25T04:45:19.174Z,15.63
2018-06-25T04:47:47.472Z,15.90
2018-06-25T04:50:15.753Z,15.27
2018-06-25T04:52:44.024Z,15.80
2018-06-25T04:55:12.460Z,16.03
2018-06-25T04:57:40.728Z,16.47
2018-06-25T05:00:09.064Z,15.83
2018-06-25T05:02:37.345Z,14.40
2018-06-25T05:05:05.970Z,14.63
2018-06-25T05:07:34.244Z,15.70
2018-06-25T05:10:02.538Z,12.60
2018-06-25T05:12:30.826Z,14.17
2018-06-25T05:14:59.108Z,13.40
2018-06-25T05:17:27.394Z,13.27
2018-06-25T05:19:55.697Z,14.43
2018-06-25T05:22:23.978Z,13.63
2018-06-25T05:24:52.280Z,13.60
2018-06-25T05:27:20.291Z,14.40
2018-06-25T05:29:48.578Z,14.00
2018-06-25T05:32:16.852Z,14.33
2018-06-25T05:34:45.110Z,14.20
2018-06-25T05:37:13.396Z,13.17
2018-06-25T05:39:41.735Z,12.30
2018-06-25T05:42:14.170Z,13.30
2018-06-25T05:44:42.472Z,12.57
2018-06-25T05:47:10.748Z,12.17
2018-06-25T05:49:39.026Z,12.60
2018-06-25T05:52:07.308Z,12.53
2018-06-25T05:54:35.596Z,11.93
2018-06-25T05:57:03.938Z,12.00
2018-06-25T05:59:32.201Z,11.63
2018-06-25T06:02:00.497Z,11.93
2018-06-25T06:04:28.498Z,11.63
2018-06-25T06:06:56.833Z,10.73
2018-06-25T06:09:25.441Z,11.00
2018-06-25T06:11:53.761Z,11.17
2018-06-25T06:14:22.045Z,10.60
2018-06-25T06:16:50.323Z,10.07
2018-06-25T06:19:18.593Z,10.27
2018-06-25T06:21:46.871Z,9.80
2018-06-25T06:24:15.147Z,9.47
2018-06-25T06:26:43.422Z,9.97
2018-06-25T06:29:11.486Z,9.47
2018-06-25T06:31:39.841Z,8.60
2018-06-25T06:34:08.117Z,9.40
2018-06-25T06:36:36.393Z,8.40
2018-06-25T06:39:08.426Z,8.37
2018-06-25T06:41:36.714Z,8.30
2018-06-25T06:44:05.007Z,8.00
2018-06-25T06:46:33.296Z,7.60
2018-06-25T06:49:01.571Z,6.80
2018-06-25T06:51:29.898Z,7.07
2018-06-25T06:53:58.179Z,6.53
2018-06-25T06:56:26.331Z,7.10
2018-06-25T06:58:54.668Z,6.70
2018-06-25T07:01:23.049Z,6.10
2018-06-25T07:03:51.399Z,6.97
2018-06-25T07:06:20.013Z,5.87
2018-06-25T07:08:48.396Z,7.00
2018-06-25T07:11:16.659Z,6.53
2018-06-25T07:13:45.012Z,6.57
2018-06-25T07:16:13.271Z,6.93
2018-06-25T07:18:41.562Z,7.23
2018-06-25T07:21:09.908Z,6.53
2018-06-25T07:23:38.189Z,6.40
2018-06-25T07:26:06.528Z,6.27
2018-06-25T07:28:34.783Z,6.20
2018-06-25T07:31:03.093Z,6.83
2018-06-25T07:33:31.397Z,6.70
2018-06-25T07:35:59.688Z,6.27
2018-06-25T07:38:27.970Z,6.70
2018-06-25T07:40:55.972Z,6.70
2018-06-25T07:43:24.265Z,6.50
2018-06-25T07:45:52.576Z,6.87
2018-06-25T07:48:20.904Z,6.87
2018-06-25T07:50:49.166Z,7.60
2018-06-25T07:53:17.513Z,7.30
2018-06-25T07:55:45.715Z,7.17
2018-06-25T07:58:14.029Z,7.30
2018-06-25T08:00:42.327Z,7.60
2018-06-25T08:03:10.611Z,6.57
2018-06-25T08:05:38.881Z,6.93
2018-06-25T08:08:07.197Z,6.93
2018-06-25T08:10:35.236Z,6.60
2018-06-25T08:13:03.589Z,6.43
2018-06-25T08:15:31.932Z,6.03
2018-06-25T08:17:59.923Z,5.80
2018-06-25T08:20:28.219Z,5.90
2018-06-25T08:22:56.501Z,5.80
2018-06-25T08:25:24.783Z,5.73
2018-06-25T08:27:53.103Z,5.60
2018-06-25T08:30:21.382Z,5.60
2018-06-25T08:32:49.708Z,5.73
2018-06-25T08:35:17.976Z,6.13
2018-06-25T08:37:46.276Z,6.07
2018-06-25T08:40:14.297Z,5.87
2018-06-25T08:42:42.613Z,5.77
2018-06-25T08:45:10.891Z,5.27
2018-06-25T08:47:39.206Z,5.90
2018-06-25T08:50:07.537Z,5.40
2018-06-25T08:52:35.811Z,5.20
2018-06-25T08:55:04.229Z,5.47
2018-06-25T08:57:32.522Z,5.20
2018-06-25T09:00:00.824Z,5.17
2018-06-25T09:02:28.901Z,5.10
2018-06-25T09:04:56.914Z,5.43
2018-06-25T09:07:25.217Z,5.50
2018-06-25T09:09:53.596Z,5.33
2018-06-25T09:12:21.554Z,5.27
2018-06-25T09:14:49.832Z,4.63
2018-06-25T09:17:18.128Z,4.03
2018-06-25T09:19:46.410Z,4.77
2018-06-25T09:22:14.709Z,4.87
2018-06-25T09:24:43.008Z,4.63
2018-06-25T09:27:11.344Z,4.00
2018-06-25T09:29:39.637Z,4.40
2018-06-25T09:32:07.928Z,4.83
2018-06-25T09:34:41.512Z,4.50
2018-06-25T09:37:09.842Z,4.97
2018-06-25T09:39:38.124Z,4.97
2018-06-25T09:42:06.408Z,5.10
2018-06-25T09:44:34.767Z,5.37
2018-06-25T09:47:03.100Z,5.03
2018-06-25T09:49:31.417Z,5.00
2018-06-25T09:51:59.723Z,4.90
2018-06-25T09:54:28.116Z,5.20
2018-06-25T09:56:56.414Z,4.87
2018-06-25T09:59:24.709Z,4.83
2018-06-25T10:01:52.717Z,5.00
2018-06-25T10:04:21.042Z,4.60
2018-06-25T10:06:49.348Z,4.40
2018-06-25T10:09:17.351Z,8.53
2018-06-25T10:11:45.619Z,4.50
2018-06-25T10:14:13.962Z,5.03
2018-06-25T10:16:42.348Z,4.50
2018-06-25T10:19:10.648Z,4.33
2018-06-25T10:21:38.980Z,4.30
2018-06-25T10:24:07.248Z,4.70
2018-06-25T10:26:35.550Z,4.10
2018-06-25T10:29:03.836Z,4.20
2018-06-25T10:31:31.848Z,4.53
2018-06-25T10:34:00.128Z,4.23
2018-06-25T10:36:28.416Z,4.20
2018-06-25T10:38:56.714Z,4.10
2018-06-25T10:41:25.035Z,4.27
2018-06-25T10:43:54.140Z,4.30
2018-06-25T10:46:22.145Z,4.70
2018-06-25T10:48:50.734Z,5.00
2018-06-25T10:51:19.221Z,4.63
2018-06-25T10:53:47.540Z,4.53
2018-06-25T10:56:15.852Z,4.10
2018-06-25T10:58:44.203Z,4.20
2018-06-25T11:01:12.604Z,5.00
2018-06-25T11:03:40.940Z,4.33
2018-06-25T11:06:10.129Z,4.57
2018-06-25T11:08:39.344Z,4.70
2018-06-25T11:11:07.687Z,4.70
2018-06-25T11:13:36.100Z,4.30
2018-06-25T11:16:04.927Z,4.20
2018-06-25T11:18:33.238Z,4.40
2018-06-25T11:21:01.555Z,4.00
2018-06-25T11:23:29.908Z,4.23
2018-06-25T11:25:58.298Z,4.47
2018-06-25T11:28:26.600Z,4.87
2018-06-25T11:30:54.969Z,4.77
2018-06-25T11:33:23.592Z,5.10
2018-06-25T11:35:51.940Z,4.80
2018-06-25T11:38:20.240Z,4.10
2018-06-25T11:40:48.668Z,4.60
2018-06-25T11:43:17.172Z,4.60
2018-06-25T11:45:45.500Z,41.07
2018-06-25T11:48:14.108Z,4.67
2018-06-25T11:50:42.452Z,5.07
2018-06-25T11:53:10.754Z,4.80
2018-06-25T11:55:39.137Z,5.10
2018-06-25T11:58:07.482Z,5.23
2018-06-25T12:00:35.932Z,4.30
2018-06-25T12:03:04.395Z,5.00
2018-06-25T12:05:32.600Z,5.20
2018-06-25T12:08:00.904Z,5.37
2018-06-25T12:10:29.240Z,5.33
2018-06-25T12:12:57.496Z,4.90
2018-06-25T12:15:25.822Z,5.40
2018-06-25T12:17:54.148Z,38.43
2018-06-25T12:20:22.440Z,6.83
2018-06-25T12:22:50.737Z,5.30
2018-06-25T12:25:19.031Z,4.83
2018-06-25T12:27:47.404Z,4.90
2018-06-25T12:30:15.632Z,5.30
2018-06-25T12:32:44.021Z,4.43
2018-06-25T12:35:12.406Z,4.50
2018-06-25T12:37:40.419Z,4.40
2018-06-25T12:40:08.661Z,4.27
2018-06-25T12:42:37.124Z,4.37
2018-06-25T12:45:05.526Z,3.87
2018-06-25T12:47:33.824Z,4.60
2018-06-25T12:50:02.292Z,4.83
2018-06-25T12:52:30.593Z,4.50
2018-06-25T12:54:58.612Z,5.07
2018-06-25T12:57:26.945Z,5.00
2018-06-25T12:59:55.243Z,5.40
2018-06-25T13:02:23.521Z,4.97
2018-06-25T13:04:51.814Z,4.57
2018-06-25T13:07:20.104Z,4.23
2018-06-25T13:09:48.390Z,4.70
2018-06-25T13:12:16.704Z,4.80
2018-06-25T13:14:45.010Z,4.47
2018-06-25T13:17:13.340Z,4.30
2018-06-25T13:19:41.680Z,4.33
2018-06-25T13:22:09.986Z,4.40
2018-06-25T13:24:38.012Z,4.17
2018-06-25T13:27:06.348Z,4.63
2018-06-25T13:29:34.417Z,4.00
2018-06-25T13:32:02.767Z,4.27
2018-06-25T13:34:31.080Z,4.23
2018-06-25T13:36:59.358Z,4.70
2018-06-25T13:39:27.628Z,4.50
2018-06-25T13:41:55.924Z,4.50
2018-06-25T13:44:24.281Z,4.50
2018-06-25T13:46:52.518Z,5.17
2018-06-25T13:49:20.860Z,4.80
2018-06-25T13:51:49.195Z,4.80
2018-06-25T13:54:17.509Z,5.07
2018-06-25T13:56:45.868Z,5.40
2018-06-25T13:59:14.208Z,5.37
2018-06-25T14:01:42.492Z,5.90
2018-06-25T14:04:10.804Z,5.30
2018-06-25T14:06:39.265Z,5.90
2018-06-25T14:09:09.476Z,5.90
2018-06-25T14:11:37.851Z,6.13
2018-06-25T14:14:06.855Z,6.20
2018-06-25T14:16:35.346Z,5.53
2018-06-25T14:19:03.555Z,5.70
2018-06-25T14:21:31.553Z,6.20
2018-06-25T14:24:05.297Z,6.07
2018-06-25T14:26:38.868Z,6.20
2018-06-25T14:29:11.411Z,6.50
2018-06-25T14:31:39.700Z,5.80
2018-06-25T14:34:13.419Z,5.33
2018-06-25T14:36:41.955Z,4.23
2018-06-25T14:39:10.973Z,4.57
2018-06-25T14:41:39.273Z,4.90
2018-06-25T14:44:07.790Z,4.40
2018-06-25T14:46:36.320Z,4.57
2018-06-25T14:49:04.621Z,5.47
2018-06-25T14:51:32.972Z,5.23
2018-06-25T14:54:01.590Z,5.63
2018-06-25T14:56:29.859Z,5.73
2018-06-25T14:58:58.185Z,5.53
2018-06-25T15:01:26.494Z,5.87
2018-06-25T15:03:54.764Z,5.67
2018-06-25T15:06:23.078Z,5.30
2018-06-25T15:08:51.355Z,5.77
2018-06-25T15:11:19.633Z,5.70
2018-06-25T15:13:47.913Z,5.57
2018-06-25T15:16:16.192Z,5.50
2018-06-25T15:18:44.563Z,5.30
2018-06-25T15:21:12.883Z,5.07
2018-06-25T15:23:41.243Z,4.77
2018-06-25T15:26:09.294Z,4.83
2018-06-25T15:28:37.567Z,4.80
2018-06-25T15:31:05.906Z,4.70
2018-06-25T15:33:34.217Z,4.97
2018-06-25T15:36:02.499Z,5.10
2018-06-25T15:38:30.773Z,4.50
2018-06-25T15:40:59.076Z,4.93
2018-06-25T15:43:27.366Z,5.00
2018-06-25T15:45:55.651Z,4.33
2018-06-25T15:48:23.967Z,4.43
2018-06-25T15:50:52.282Z,4.57
2018-06-25T15:53:20.588Z,4.57
2018-06-25T15:55:48.893Z,4.47
2018-06-25T15:58:17.336Z,4.73
2018-06-25T16:00:45.637Z,4.23
2018-06-25T16:03:13.942Z,4.53
2018-06-25T16:05:42.245Z,4.10
2018-06-25T16:08:10.548Z,4.50
2018-06-25T16:10:38.890Z,3.47
2018-06-25T16:13:07.287Z,3.50
2018-06-25T16:15:35.626Z,3.30
2018-06-25T16:18:03.919Z,3.30
2018-06-25T16:20:31.940Z,3.53
2018-06-25T16:23:00.249Z,3.27
2018-06-25T16:25:28.543Z,3.47
2018-06-25T16:27:56.822Z,3.20
2018-06-25T16:30:25.123Z,2.80
2018-06-25T16:32:53.135Z,2.60
2018-06-25T16:35:21.446Z,2.80
2018-06-25T16:37:49.746Z,2.30
2018-06-25T16:40:18.106Z,2.83
2018-06-25T16:42:46.381Z,2.70
2018-06-25T16:45:14.681Z,3.20
2018-06-25T16:47:42.965Z,2.57
2018-06-25T16:50:11.257Z,2.50
2018-06-25T16:52:39.539Z,2.63
2018-06-25T16:55:07.872Z,2.80
2018-06-25T16:57:36.172Z,2.90
2018-06-25T17:00:05.074Z,2.67
2018-06-25T17:02:33.378Z,2.63
2018-06-25T17:05:01.660Z,2.47
2018-06-25T17:07:29.937Z,2.57
2018-06-25T17:09:58.306Z,2.40
2018-06-25T17:12:26.601Z,2.70
2018-06-25T17:14:54.887Z,2.47
2018-06-25T17:17:23.370Z,2.60
2018-06-25T17:19:51.964Z,2.47
2018-06-25T17:22:20.255Z,2.50
2018-06-25T17:24:48.533Z,2.60
2018-06-25T17:27:17.419Z,3.00
2018-06-25T17:29:45.787Z,2.70
2018-06-25T17:32:14.094Z,3.17
2018-06-25T17:34:42.464Z,3.23
2018-06-25T17:37:10.794Z,2.90
2018-06-25T17:39:39.128Z,3.27
2018-06-25T17:42:07.123Z,3.30
2018-06-25T17:44:35.422Z,3.40
2018-06-25T17:47:03.736Z,3.40
2018-06-25T17:49:32.040Z,3.40
2018-06-25T17:52:00.412Z,3.50
2018-06-25T17:54:28.720Z,3.30
2018-06-25T17:56:57.021Z,3.50
2018-06-25T17:59:25.439Z,3.30
2018-06-25T18:01:53.736Z,3.60
2018-06-25T18:04:22.047Z,3.57
2018-06-25T18:06:50.566Z,3.37
2018-06-25T18:09:18.888Z,3.70
2018-06-25T18:11:47.212Z,3.27
2018-06-25T18:14:15.541Z,3.57
2018-06-25T18:16:43.836Z,3.57
2018-06-25T18:19:12.118Z,3.30
2018-06-25T18:21:40.405Z,3.40
2018-06-25T18:24:08.794Z,3.40
2018-06-25T18:26:37.133Z,3.30
2018-06-25T18:29:05.526Z,3.60
2018-06-25T18:31:33.929Z,3.60
2018-06-25T18:34:02.226Z,3.23
2018-06-25T18:36:30.573Z,3.67
2018-06-25T18:38:58.921Z,3.50
2018-06-25T18:41:26.937Z,3.70
2018-06-25T18:43:55.225Z,3.33
2018-06-25T18:46:23.515Z,3.80
2018-06-25T18:48:51.813Z,3.63
2018-06-25T18:51:20.125Z,3.60
2018-06-25T18:53:48.416Z,3.00
2018-06-25T18:56:16.718Z,3.50
2018-06-25T18:58:45.012Z,3.10
2018-06-25T19:01:13.574Z,3.50
2018-06-25T19:03:41.891Z,3.20
2018-06-25T19:06:10.230Z,3.60
2018-06-25T19:08:38.548Z,3.57
2018-06-25T19:11:06.935Z,4.07
2018-06-25T19:13:35.279Z,3.83
2018-06-25T19:16:03.328Z,4.00
2018-06-25T19:18:31.719Z,4.10
2018-06-25T19:21:00.993Z,4.30
2018-06-25T19:23:29.258Z,4.50
2018-06-25T19:25:57.550Z,4.33
2018-06-25T19:28:25.886Z,4.83
2018-06-25T19:30:54.223Z,4.53
2018-06-25T19:33:22.255Z,4.80
2018-06-25T19:35:50.599Z,4.77
2018-06-25T19:38:18.920Z,5.27
2018-06-25T19:40:47.276Z,4.67
2018-06-25T19:43:15.573Z,4.83
2018-06-25T19:45:43.864Z,5.03
2018-06-25T19:48:11.893Z,5.73
2018-06-25T19:50:39.956Z,6.47
2018-06-25T19:53:08.276Z,6.20
2018-06-25T19:55:36.555Z,6.10
2018-06-25T19:58:04.876Z,6.80
2018-06-25T20:00:33.712Z,7.50
2018-06-25T20:03:01.748Z,6.90
2018-06-25T20:05:30.096Z,14.10
2018-06-25T20:07:58.420Z,8.90
2018-06-25T20:10:27.746Z,6.50
2018-06-25T20:12:56.119Z,6.07
2018-06-25T20:15:24.649Z,6.90
2018-06-25T20:17:52.985Z,6.83
2018-06-25T20:20:21.320Z,5.90
2018-06-25T20:22:49.614Z,6.70
2018-06-25T20:25:17.946Z,6.57
2018-06-25T20:27:46.262Z,6.13
2018-06-25T20:30:14.590Z,7.37
2018-06-25T20:32:42.949Z,6.80
2018-06-25T20:35:11.290Z,7.40
2018-06-25T20:37:39.648Z,6.70
2018-06-25T20:40:07.986Z,6.90
2018-06-25T20:42:36.352Z,6.73
2018-06-25T20:45:04.728Z,6.53
2018-06-25T20:47:33.077Z,6.57
2018-06-25T20:50:01.449Z,6.30
2018-06-25T20:52:29.756Z,6.63
2018-06-25T20:54:58.051Z,6.83
2018-06-25T20:57:26.384Z,7.50
2018-06-25T20:59:54.692Z,7.53
2018-06-25T21:02:23.212Z,7.90
2018-06-25T21:04:51.518Z,8.03
2018-06-25T21:07:19.856Z,7.97
2018-06-25T21:09:48.193Z,8.20
2018-06-25T21:12:16.549Z,8.47
2018-06-25T21:14:44.852Z,8.20
2018-06-25T21:17:13.157Z,7.90
2018-06-25T21:19:41.486Z,59.97
2018-06-25T21:22:09.828Z,23.63
2018-06-25T21:24:38.133Z,27.53
2018-06-25T21:27:06.188Z,8.87
2018-06-25T21:29:34.492Z,9.40
2018-06-25T21:32:02.499Z,8.63
2018-06-25T21:34:31.020Z,9.90
2018-06-25T21:36:59.373Z,9.57
2018-06-25T21:39:27.705Z,10.90
2018-06-25T21:41:56.000Z,9.87
2018-06-25T21:44:24.326Z,10.23
2018-06-25T21:46:52.657Z,11.83
2018-06-25T21:49:20.969Z,11.67
2018-06-25T21:51:49.258Z,11.30
2018-06-25T21:54:17.528Z,10.80
2018-06-25T21:56:45.812Z,12.17
2018-06-25T21:59:14.160Z,10.70
2018-06-25T22:01:42.559Z,10.77
2018-06-25T22:04:10.864Z,10.73
2018-06-25T22:06:39.159Z,11.20
2018-06-25T22:09:08.869Z,11.27
2018-06-25T22:11:37.201Z,10.50
2018-06-25T22:14:05.533Z,11.63
2018-06-25T22:16:33.864Z,10.90
2018-06-25T22:19:02.167Z,12.07
2018-06-25T22:21:30.460Z,10.63
2018-06-25T22:23:58.752Z,11.30
2018-06-25T22:26:27.047Z,11.70
2018-06-25T22:28:55.371Z,11.07
2018-06-25T22:31:23.624Z,11.60
2018-06-25T22:33:51.963Z,10.90
2018-06-25T22:36:20.336Z,11.50
2018-06-25T22:38:48.598Z,12.30
2018-06-25T22:41:16.953Z,11.73
2018-06-25T22:43:45.552Z,12.43
2018-06-25T22:46:13.866Z,11.63
2018-06-25T22:48:42.311Z,10.80
2018-06-25T22:51:10.687Z,11.97
2018-06-25T22:53:38.979Z,12.10
2018-06-25T22:56:07.257Z,12.30
2018-06-25T22:58:35.552Z,11.43
2018-06-25T23:01:03.840Z,11.90
2018-06-25T23:03:32.185Z,11.43
2018-06-25T23:06:00.193Z,12.40
2018-06-25T23:08:28.482Z,11.77
2018-06-25T23:10:56.480Z,12.07
2018-06-25T23:13:24.769Z,10.53
2018-06-25T23:15:53.077Z,12.20
2018-06-25T23:18:21.349Z,12.97
2018-06-25T23:20:49.625Z,11.70
2018-06-25T23:23:17.902Z,11.77
2018-06-25T23:25:46.186Z,12.53
2018-06-25T23:28:14.570Z,12.10
2018-06-25T23:30:42.817Z,12.33
2018-06-25T23:33:10.825Z,12.17
2018-06-25T23:35:39.123Z,12.23
2018-06-25T23:38:07.440Z,11.70
2018-06-25T23:40:35.742Z,11.73
2018-06-25T23:43:03.753Z,12.13
2018-06-25T23:45:32.040Z,12.00
2018-06-25T23:48:00.341Z,12.37
2018-06-25T23:50:28.643Z,12.37
2018-06-25T23:52:56.982Z,12.10
2018-06-25T23:55:25.287Z,12.63
2018-06-25T23:57:53.668Z,12.83
